sensor_id;sensor_type;location;lat;lon;timestamp;pressure;altitude;pressure_sealevel;temperature;humidity
56737;BME280;42618;51.226;4.910;2023-07-22T00:00:03;49551.56;;;-146.94;63.79
56737;BME280;42618;51.226;4.910;2023-07-22T00:02:32;49587.47;;;-146.94;64.49
56737;BME280;42618;51.226;4.910;2023-07-22T00:04:59;49591.44;;;-146.94;65.33
56737;BME280;42618;51.226;4.910;2023-07-22T00:07:26;49597.44;;;-146.94;65.88
56737;BME280;42618;51.226;4.910;2023-07-22T00:09:53;49601.41;;;-146.94;65.91
56737;BME280;42618;51.226;4.910;2023-07-22T00:12:19;49621.34;;;-146.94;66.12
56737;BME280;42618;51.226;4.910;2023-07-22T00:14:46;49551.56;;;-146.94;66.56
56737;BME280;42618;51.226;4.910;2023-07-22T00:17:13;49611.38;;;-146.94;67.17
56737;BME280;42618;51.226;4.910;2023-07-22T00:19:41;49589.44;;;-146.94;67.42
56737;BME280;42618;51.226;4.910;2023-07-22T00:22:08;49613.38;;;-146.94;67.08
56737;BME280;42618;51.226;4.910;2023-07-22T00:24:34;49595.44;;;-146.94;67.35
56737;BME280;42618;51.226;4.910;2023-07-22T00:27:01;49611.38;;;-146.94;67.41
56737;BME280;42618;51.226;4.910;2023-07-22T00:29:28;49591.44;;;-146.94;67.69
56737;BME280;42618;51.226;4.910;2023-07-22T00:31:55;49597.44;;;-146.94;67.64
56737;BME280;42618;51.226;4.910;2023-07-22T00:34:22;49623.34;;;-146.94;67.79
56737;BME280;42618;51.226;4.910;2023-07-22T00:36:49;49619.34;;;-146.94;67.61
56737;BME280;42618;51.226;4.910;2023-07-22T00:39:16;49591.44;;;-146.94;68.41
56737;BME280;42618;51.226;4.910;2023-07-22T00:41:43;49591.44;;;-146.94;68.76
56737;BME280;42618;51.226;4.910;2023-07-22T00:44:11;49571.50;;;-146.94;68.91
56737;BME280;42618;51.226;4.910;2023-07-22T00:46:39;49595.44;;;-146.94;68.73
56737;BME280;42618;51.226;4.910;2023-07-22T00:49:07;49595.44;;;-146.94;68.85
56737;BME280;42618;51.226;4.910;2023-07-22T00:51:34;49601.41;;;-146.94;69.40
56737;BME280;42618;51.226;4.910;2023-07-22T00:54:01;49575.50;;;-146.94;69.34
56737;BME280;42618;51.226;4.910;2023-07-22T00:56:33;49607.41;;;-146.94;69.69
56737;BME280;42618;51.226;4.910;2023-07-22T00:59:02;49579.47;;;-146.94;69.51
56737;BME280;42618;51.226;4.910;2023-07-22T01:01:29;49605.41;;;-146.94;69.39
56737;BME280;42618;51.226;4.910;2023-07-22T01:03:55;49587.47;;;-146.94;69.84
56737;BME280;42618;51.226;4.910;2023-07-22T01:06:23;49611.38;;;-146.94;69.89
56737;BME280;42618;51.226;4.910;2023-07-22T01:08:52;49613.38;;;-146.94;69.86
56737;BME280;42618;51.226;4.910;2023-07-22T01:11:18;49607.41;;;-146.94;70.02
56737;BME280;42618;51.226;4.910;2023-07-22T01:13:45;49617.38;;;-146.94;69.70
56737;BME280;42618;51.226;4.910;2023-07-22T01:16:12;49615.38;;;-146.94;69.97
56737;BME280;42618;51.226;4.910;2023-07-22T01:18:39;49613.38;;;-146.94;69.96
56737;BME280;42618;51.226;4.910;2023-07-22T01:21:06;49579.47;;;-146.94;70.07
56737;BME280;42618;51.226;4.910;2023-07-22T01:23:33;49587.47;;;-146.94;70.63
56737;BME280;42618;51.226;4.910;2023-07-22T01:26:01;49559.56;;;-146.94;70.86
56737;BME280;42618;51.226;4.910;2023-07-22T01:28:29;49599.41;;;-146.94;71.19
56737;BME280;42618;51.226;4.910;2023-07-22T01:30:55;49609.38;;;-146.94;71.78
56737;BME280;42618;51.226;4.910;2023-07-22T01:33:22;49595.44;;;-146.94;71.65
56737;BME280;42618;51.226;4.910;2023-07-22T01:35:49;49583.47;;;-146.94;71.96
56737;BME280;42618;51.226;4.910;2023-07-22T01:38:16;49619.34;;;-146.94;71.95
56737;BME280;42618;51.226;4.910;2023-07-22T01:40:43;49599.41;;;-146.94;72.16
56737;BME280;42618;51.226;4.910;2023-07-22T01:43:10;49591.44;;;-146.94;72.36
56737;BME280;42618;51.226;4.910;2023-07-22T01:45:37;49571.50;;;-146.94;72.60
56737;BME280;42618;51.226;4.910;2023-07-22T01:48:05;49629.31;;;-146.94;72.37
56737;BME280;42618;51.226;4.910;2023-07-22T01:50:32;49619.34;;;-146.94;72.57
56737;BME280;42618;51.226;4.910;2023-07-22T01:53:00;49599.41;;;-146.94;72.44
56737;BME280;42618;51.226;4.910;2023-07-22T01:55:26;49615.38;;;-146.94;72.56
56737;BME280;42618;51.226;4.910;2023-07-22T01:57:54;49591.44;;;-146.94;72.63
56737;BME280;42618;51.226;4.910;2023-07-22T02:00:21;49613.38;;;-146.94;73.08
56737;BME280;42618;51.226;4.910;2023-07-22T02:02:48;49575.50;;;-146.94;72.96
56737;BME280;42618;51.226;4.910;2023-07-22T02:05:15;49663.22;;;-146.94;72.77
56737;BME280;42618;51.226;4.910;2023-07-22T02:07:42;49645.28;;;-146.94;72.76
56737;BME280;42618;51.226;4.910;2023-07-22T02:10:09;49603.41;;;-146.94;72.73
56737;BME280;42618;51.226;4.910;2023-07-22T02:12:36;49589.44;;;-146.94;72.90
56737;BME280;42618;51.226;4.910;2023-07-22T02:15:03;49601.41;;;-146.94;73.22
56737;BME280;42618;51.226;4.910;2023-07-22T02:17:30;49613.38;;;-146.94;73.46
56737;BME280;42618;51.226;4.910;2023-07-22T02:19:57;49607.41;;;-146.94;73.58
56737;BME280;42618;51.226;4.910;2023-07-22T02:22:24;49595.44;;;-146.94;73.78
56737;BME280;42618;51.226;4.910;2023-07-22T02:24:51;49581.47;;;-146.94;73.77
56737;BME280;42618;51.226;4.910;2023-07-22T02:27:18;49603.41;;;-146.94;73.39
56737;BME280;42618;51.226;4.910;2023-07-22T02:29:44;49607.41;;;-146.94;73.50
56737;BME280;42618;51.226;4.910;2023-07-22T02:32:11;49587.47;;;-146.94;73.63
56737;BME280;42618;51.226;4.910;2023-07-22T02:34:38;49609.38;;;-146.94;73.93
56737;BME280;42618;51.226;4.910;2023-07-22T02:37:04;49607.41;;;-146.94;73.44
56737;BME280;42618;51.226;4.910;2023-07-22T02:39:31;49627.31;;;-146.94;73.31
56737;BME280;42618;51.226;4.910;2023-07-22T02:42:00;49625.34;;;-146.94;73.73
56737;BME280;42618;51.226;4.910;2023-07-22T02:44:27;49619.34;;;-146.94;74.17
56737;BME280;42618;51.226;4.910;2023-07-22T02:46:54;49631.31;;;-146.94;74.60
56737;BME280;42618;51.226;4.910;2023-07-22T02:49:21;49611.38;;;-146.94;74.00
56737;BME280;42618;51.226;4.910;2023-07-22T02:51:47;49643.28;;;-146.94;74.15
56737;BME280;42618;51.226;4.910;2023-07-22T02:54:14;49603.41;;;-146.94;75.22
56737;BME280;42618;51.226;4.910;2023-07-22T02:56:41;49585.47;;;-146.94;75.63
56737;BME280;42618;51.226;4.910;2023-07-22T02:59:09;49587.47;;;-146.94;75.32
56737;BME280;42618;51.226;4.910;2023-07-22T03:01:36;49589.44;;;-146.94;75.60
56737;BME280;42618;51.226;4.910;2023-07-22T03:04:03;49615.38;;;-146.94;75.66
56737;BME280;42618;51.226;4.910;2023-07-22T03:06:30;49613.38;;;-146.94;75.95
56737;BME280;42618;51.226;4.910;2023-07-22T03:08:57;49627.31;;;-146.94;76.16
56737;BME280;42618;51.226;4.910;2023-07-22T03:11:24;49629.31;;;-146.94;75.98
56737;BME280;42618;51.226;4.910;2023-07-22T03:13:51;49629.31;;;-146.94;76.13
56737;BME280;42618;51.226;4.910;2023-07-22T03:16:18;49599.41;;;-146.94;76.46
56737;BME280;42618;51.226;4.910;2023-07-22T03:18:45;49625.34;;;-146.94;76.72
56737;BME280;42618;51.226;4.910;2023-07-22T03:21:12;49611.38;;;-146.94;76.64
56737;BME280;42618;51.226;4.910;2023-07-22T03:23:39;49631.31;;;-146.94;76.41
56737;BME280;42618;51.226;4.910;2023-07-22T03:26:06;49619.34;;;-146.94;76.80
56737;BME280;42618;51.226;4.910;2023-07-22T03:28:33;49615.38;;;-146.94;77.26
56737;BME280;42618;51.226;4.910;2023-07-22T03:31:00;49595.44;;;-146.94;77.43
56737;BME280;42618;51.226;4.910;2023-07-22T03:33:27;49635.31;;;-146.94;77.17
56737;BME280;42618;51.226;4.910;2023-07-22T03:35:53;49615.38;;;-146.94;77.63
56737;BME280;42618;51.226;4.910;2023-07-22T03:38:20;49623.34;;;-146.94;77.86
56737;BME280;42618;51.226;4.910;2023-07-22T03:40:47;49613.38;;;-146.94;77.54
56737;BME280;42618;51.226;4.910;2023-07-22T03:43:14;49583.47;;;-146.94;77.61
56737;BME280;42618;51.226;4.910;2023-07-22T03:45:41;49635.31;;;-146.94;77.82
56737;BME280;42618;51.226;4.910;2023-07-22T03:48:07;49625.34;;;-146.94;77.99
56737;BME280;42618;51.226;4.910;2023-07-22T03:50:35;49635.31;;;-146.94;77.99
56737;BME280;42618;51.226;4.910;2023-07-22T03:53:02;49619.34;;;-146.94;78.44
56737;BME280;42618;51.226;4.910;2023-07-22T03:55:29;49599.41;;;-146.94;78.24
56737;BME280;42618;51.226;4.910;2023-07-22T03:57:56;49579.47;;;-146.94;78.05
56737;BME280;42618;51.226;4.910;2023-07-22T04:00:22;49655.25;;;-146.94;78.85
56737;BME280;42618;51.226;4.910;2023-07-22T04:02:49;49599.41;;;-146.94;79.47
56737;BME280;42618;51.226;4.910;2023-07-22T04:05:16;49621.34;;;-146.94;79.35
56737;BME280;42618;51.226;4.910;2023-07-22T04:07:44;49619.34;;;-146.94;79.69
56737;BME280;42618;51.226;4.910;2023-07-22T04:10:11;49589.44;;;-146.94;79.83
56737;BME280;42618;51.226;4.910;2023-07-22T04:12:38;49581.47;;;-146.94;79.87
56737;BME280;42618;51.226;4.910;2023-07-22T04:15:08;49621.34;;;-146.94;79.96
56737;BME280;42618;51.226;4.910;2023-07-22T04:17:35;49631.31;;;-146.94;79.86
56737;BME280;42618;51.226;4.910;2023-07-22T04:20:02;49605.41;;;-146.94;79.81
56737;BME280;42618;51.226;4.910;2023-07-22T04:22:30;49631.31;;;-146.94;80.04
56737;BME280;42618;51.226;4.910;2023-07-22T04:24:58;49635.31;;;-146.94;80.24
56737;BME280;42618;51.226;4.910;2023-07-22T04:27:26;49617.38;;;-146.94;79.98
56737;BME280;42618;51.226;4.910;2023-07-22T04:29:53;49623.34;;;-146.94;80.20
56737;BME280;42618;51.226;4.910;2023-07-22T04:32:20;49611.38;;;-146.94;80.17
56737;BME280;42618;51.226;4.910;2023-07-22T04:34:46;49643.28;;;-146.94;80.55
56737;BME280;42618;51.226;4.910;2023-07-22T04:37:14;49615.38;;;-146.94;80.19
56737;BME280;42618;51.226;4.910;2023-07-22T04:39:47;49653.25;;;-146.94;80.12
56737;BME280;42618;51.226;4.910;2023-07-22T04:42:14;49615.38;;;-146.94;80.21
56737;BME280;42618;51.226;4.910;2023-07-22T04:44:41;49635.31;;;-146.94;80.04
56737;BME280;42618;51.226;4.910;2023-07-22T04:47:08;49623.34;;;-146.94;80.34
56737;BME280;42618;51.226;4.910;2023-07-22T04:49:34;49621.34;;;-146.94;79.82
56737;BME280;42618;51.226;4.910;2023-07-22T04:52:01;49617.38;;;-146.94;80.14
56737;BME280;42618;51.226;4.910;2023-07-22T04:54:28;49611.38;;;-146.94;79.98
56737;BME280;42618;51.226;4.910;2023-07-22T04:56:55;49633.31;;;-146.94;79.86
56737;BME280;42618;51.226;4.910;2023-07-22T04:59:21;49587.47;;;-146.94;80.42
56737;BME280;42618;51.226;4.910;2023-07-22T05:01:48;49623.34;;;-146.94;79.94
56737;BME280;42618;51.226;4.910;2023-07-22T05:04:15;49587.47;;;-146.94;79.56
56737;BME280;42618;51.226;4.910;2023-07-22T05:06:41;49613.38;;;-146.94;79.71
56737;BME280;42618;51.226;4.910;2023-07-22T05:09:08;49611.38;;;-146.94;79.97
56737;BME280;42618;51.226;4.910;2023-07-22T05:11:35;49577.50;;;-146.94;80.48
56737;BME280;42618;51.226;4.910;2023-07-22T05:14:01;49625.34;;;-146.94;80.02
56737;BME280;42618;51.226;4.910;2023-07-22T05:16:28;49647.25;;;-146.94;79.76
56737;BME280;42618;51.226;4.910;2023-07-22T05:18:55;49597.44;;;-146.94;79.61
56737;BME280;42618;51.226;4.910;2023-07-22T05:21:22;49615.38;;;-146.94;80.31
56737;BME280;42618;51.226;4.910;2023-07-22T05:23:49;49635.31;;;-146.94;80.77
56737;BME280;42618;51.226;4.910;2023-07-22T05:26:15;49643.28;;;-146.94;80.64
56737;BME280;42618;51.226;4.910;2023-07-22T05:28:42;49633.31;;;-146.94;80.38
56737;BME280;42618;51.226;4.910;2023-07-22T05:31:09;49625.34;;;-146.94;80.85
56737;BME280;42618;51.226;4.910;2023-07-22T05:33:36;49615.38;;;-146.94;81.00
56737;BME280;42618;51.226;4.910;2023-07-22T05:36:04;49639.28;;;-146.94;81.19
56737;BME280;42618;51.226;4.910;2023-07-22T05:38:30;49611.38;;;-146.94;80.73
56737;BME280;42618;51.226;4.910;2023-07-22T05:40:57;49609.38;;;-146.94;81.46
56737;BME280;42618;51.226;4.910;2023-07-22T05:43:24;49631.31;;;-146.94;81.53
56737;BME280;42618;51.226;4.910;2023-07-22T05:45:51;49631.31;;;-146.94;81.50
56737;BME280;42618;51.226;4.910;2023-07-22T05:48:18;49645.28;;;-146.94;81.16
56737;BME280;42618;51.226;4.910;2023-07-22T05:50:44;49593.44;;;-146.94;81.08
56737;BME280;42618;51.226;4.910;2023-07-22T05:53:12;49607.41;;;-146.94;81.65
56737;BME280;42618;51.226;4.910;2023-07-22T05:55:38;49613.38;;;-146.94;81.48
56737;BME280;42618;51.226;4.910;2023-07-22T05:58:05;49621.34;;;-146.94;81.48
56737;BME280;42618;51.226;4.910;2023-07-22T06:00:33;49623.34;;;-146.94;80.70
56737;BME280;42618;51.226;4.910;2023-07-22T06:03:00;49627.31;;;-146.94;80.24
56737;BME280;42618;51.226;4.910;2023-07-22T06:05:27;49611.38;;;-146.94;80.78
56737;BME280;42618;51.226;4.910;2023-07-22T06:07:54;49619.34;;;-146.94;80.88
56737;BME280;42618;51.226;4.910;2023-07-22T06:10:21;49631.31;;;-146.94;81.10
56737;BME280;42618;51.226;4.910;2023-07-22T06:12:48;49647.25;;;-146.94;81.59
56737;BME280;42618;51.226;4.910;2023-07-22T06:15:15;49663.22;;;-146.94;80.92
56737;BME280;42618;51.226;4.910;2023-07-22T06:17:41;49605.41;;;-146.94;81.44
56737;BME280;42618;51.226;4.910;2023-07-22T06:20:09;49605.41;;;-146.94;80.61
56737;BME280;42618;51.226;4.910;2023-07-22T06:22:36;49617.38;;;-146.94;80.48
56737;BME280;42618;51.226;4.910;2023-07-22T06:25:04;49587.47;;;-146.94;79.61
56737;BME280;42618;51.226;4.910;2023-07-22T06:27:31;49575.50;;;-146.94;79.88
56737;BME280;42618;51.226;4.910;2023-07-22T06:29:58;49603.41;;;-146.94;79.61
56737;BME280;42618;51.226;4.910;2023-07-22T06:32:24;49623.34;;;-146.94;79.62
56737;BME280;42618;51.226;4.910;2023-07-22T06:34:51;49587.47;;;-146.94;78.98
56737;BME280;42618;51.226;4.910;2023-07-22T06:37:18;49615.38;;;-146.94;79.49
56737;BME280;42618;51.226;4.910;2023-07-22T06:39:44;49627.31;;;-146.94;80.21
56737;BME280;42618;51.226;4.910;2023-07-22T06:42:11;49607.41;;;-146.94;80.47
56737;BME280;42618;51.226;4.910;2023-07-22T06:44:38;49613.38;;;-146.94;80.24
56737;BME280;42618;51.226;4.910;2023-07-22T06:47:05;49633.31;;;-146.94;79.05
56737;BME280;42618;51.226;4.910;2023-07-22T06:49:32;49579.47;;;-146.94;78.91
56737;BME280;42618;51.226;4.910;2023-07-22T06:51:59;49593.44;;;-146.94;78.37
56737;BME280;42618;51.226;4.910;2023-07-22T06:54:25;49603.41;;;-146.94;78.74
56737;BME280;42618;51.226;4.910;2023-07-22T06:56:52;49587.47;;;-146.94;78.83
56737;BME280;42618;51.226;4.910;2023-07-22T06:59:19;49555.56;;;-146.94;78.58
56737;BME280;42618;51.226;4.910;2023-07-22T07:01:46;49621.34;;;-146.94;77.89
56737;BME280;42618;51.226;4.910;2023-07-22T07:04:13;49635.31;;;-146.94;78.53
56737;BME280;42618;51.226;4.910;2023-07-22T07:06:40;49591.44;;;-146.94;78.61
56737;BME280;42618;51.226;4.910;2023-07-22T07:09:07;49575.50;;;-146.94;79.55
56737;BME280;42618;51.226;4.910;2023-07-22T07:11:33;49603.41;;;-146.94;79.91
56737;BME280;42618;51.226;4.910;2023-07-22T07:14:00;49615.38;;;-146.94;78.90
56737;BME280;42618;51.226;4.910;2023-07-22T07:16:31;49589.44;;;-146.94;78.91
56737;BME280;42618;51.226;4.910;2023-07-22T07:19:00;49607.41;;;-146.94;78.42
56737;BME280;42618;51.226;4.910;2023-07-22T07:21:27;49599.41;;;-146.94;78.18
56737;BME280;42618;51.226;4.910;2023-07-22T07:23:54;49635.31;;;-146.94;78.40
56737;BME280;42618;51.226;4.910;2023-07-22T07:26:21;49637.28;;;-146.94;78.53
56737;BME280;42618;51.226;4.910;2023-07-22T07:28:49;49617.38;;;-146.94;78.06
56737;BME280;42618;51.226;4.910;2023-07-22T07:31:17;49621.34;;;-146.94;77.94
56737;BME280;42618;51.226;4.910;2023-07-22T07:33:44;49623.34;;;-146.94;77.94
56737;BME280;42618;51.226;4.910;2023-07-22T07:36:11;49623.34;;;-146.94;77.57
56737;BME280;42618;51.226;4.910;2023-07-22T07:38:38;49611.38;;;-146.94;77.94
56737;BME280;42618;51.226;4.910;2023-07-22T07:41:06;49595.44;;;-146.94;78.58
56737;BME280;42618;51.226;4.910;2023-07-22T07:43:39;49585.47;;;-146.94;77.95
56737;BME280;42618;51.226;4.910;2023-07-22T07:48:57;49543.59;;;-146.94;77.66
56737;BME280;42618;51.226;4.910;2023-07-22T07:51:25;49595.44;;;-146.94;77.41
56737;BME280;42618;51.226;4.910;2023-07-22T07:53:54;49587.47;;;-146.94;78.20
56737;BME280;42618;51.226;4.910;2023-07-22T07:56:21;49619.34;;;-146.94;77.89
56737;BME280;42618;51.226;4.910;2023-07-22T07:58:49;49617.38;;;-146.94;77.79
56737;BME280;42618;51.226;4.910;2023-07-22T08:01:16;49587.47;;;-146.94;77.43
56737;BME280;42618;51.226;4.910;2023-07-22T08:03:43;49593.44;;;-146.94;76.97
56737;BME280;42618;51.226;4.910;2023-07-22T08:06:11;49559.56;;;-146.94;76.16
56737;BME280;42618;51.226;4.910;2023-07-22T08:08:39;49591.44;;;-146.94;75.59
56737;BME280;42618;51.226;4.910;2023-07-22T08:11:11;49617.38;;;-146.94;76.87
56737;BME280;42618;51.226;4.910;2023-07-22T08:13:41;49585.47;;;-146.94;75.88
56737;BME280;42618;51.226;4.910;2023-07-22T08:16:09;49605.41;;;-146.94;75.53
56737;BME280;42618;51.226;4.910;2023-07-22T08:18:37;49591.44;;;-146.94;74.65
56737;BME280;42618;51.226;4.910;2023-07-22T08:21:05;49611.38;;;-146.94;73.69
56737;BME280;42618;51.226;4.910;2023-07-22T08:23:36;49575.50;;;-146.94;71.97
56737;BME280;42618;51.226;4.910;2023-07-22T08:26:04;49593.44;;;-146.94;69.55
56737;BME280;42618;51.226;4.910;2023-07-22T08:28:33;49535.63;;;-146.94;69.95
56737;BME280;42618;51.226;4.910;2023-07-22T08:30:59;49569.50;;;-146.94;69.17
56737;BME280;42618;51.226;4.910;2023-07-22T08:33:27;49599.41;;;-146.94;67.08
56737;BME280;42618;51.226;4.910;2023-07-22T08:36:08;49579.47;;;-146.94;67.61
56737;BME280;42618;51.226;4.910;2023-07-22T08:38:35;49535.63;;;-146.94;67.37
56737;BME280;42618;51.226;4.910;2023-07-22T08:41:02;49603.41;;;-146.94;68.37
56737;BME280;42618;51.226;4.910;2023-07-22T08:43:29;49587.47;;;-146.94;67.82
56737;BME280;42618;51.226;4.910;2023-07-22T08:46:00;49603.41;;;-146.94;67.91
56737;BME280;42618;51.226;4.910;2023-07-22T08:48:29;49583.47;;;-146.94;68.82
56737;BME280;42618;51.226;4.910;2023-07-22T08:51:13;49587.47;;;-146.94;68.36
56737;BME280;42618;51.226;4.910;2023-07-22T08:53:45;49571.50;;;-146.94;67.51
56737;BME280;42618;51.226;4.910;2023-07-22T08:56:26;49579.47;;;-146.94;67.59
56737;BME280;42618;51.226;4.910;2023-07-22T08:58:54;49543.59;;;-146.94;66.53
56737;BME280;42618;51.226;4.910;2023-07-22T09:01:22;49567.53;;;-146.94;66.84
56737;BME280;42618;51.226;4.910;2023-07-22T09:03:51;49571.50;;;-146.94;66.78
56737;BME280;42618;51.226;4.910;2023-07-22T09:06:19;49595.44;;;-146.94;65.74
56737;BME280;42618;51.226;4.910;2023-07-22T09:08:46;49571.50;;;-146.94;65.13
56737;BME280;42618;51.226;4.910;2023-07-22T09:11:15;49567.53;;;-146.94;64.48
56737;BME280;42618;51.226;4.910;2023-07-22T09:13:44;49571.50;;;-146.94;63.55
56737;BME280;42618;51.226;4.910;2023-07-22T09:16:12;49549.59;;;-146.94;62.37
56737;BME280;42618;51.226;4.910;2023-07-22T09:18:39;49597.44;;;-146.94;58.90
56737;BME280;42618;51.226;4.910;2023-07-22T09:21:06;49541.59;;;-146.94;59.84
56737;BME280;42618;51.226;4.910;2023-07-22T09:23:34;49531.63;;;-146.94;59.24
56737;BME280;42618;51.226;4.910;2023-07-22T09:26:15;49559.56;;;-146.94;58.59
56737;BME280;42618;51.226;4.910;2023-07-22T09:28:52;49569.50;;;-146.94;55.86
56737;BME280;42618;51.226;4.910;2023-07-22T09:31:24;49555.56;;;-146.94;56.47
56737;BME280;42618;51.226;4.910;2023-07-22T09:33:52;49549.59;;;-146.94;54.26
56737;BME280;42618;51.226;4.910;2023-07-22T09:36:22;49521.69;;;-146.94;51.95
56737;BME280;42618;51.226;4.910;2023-07-22T09:39:02;49533.63;;;-146.94;52.13
56737;BME280;42618;51.226;4.910;2023-07-22T09:41:30;49539.63;;;-146.94;50.71
56737;BME280;42618;51.226;4.910;2023-07-22T09:44:01;49575.50;;;-146.94;50.50
56737;BME280;42618;51.226;4.910;2023-07-22T09:46:32;49555.56;;;-146.94;50.32
56737;BME280;42618;51.226;4.910;2023-07-22T09:49:06;49517.69;;;-146.94;48.90
56737;BME280;42618;51.226;4.910;2023-07-22T09:51:40;49567.53;;;-146.94;50.33
56737;BME280;42618;51.226;4.910;2023-07-22T09:54:27;49529.66;;;-146.94;50.18
56737;BME280;42618;51.226;4.910;2023-07-22T09:56:55;49553.56;;;-146.94;51.61
56737;BME280;42618;51.226;4.910;2023-07-22T09:59:23;49531.63;;;-146.94;50.68
56737;BME280;42618;51.226;4.910;2023-07-22T10:01:50;49557.56;;;-146.94;49.42
56737;BME280;42618;51.226;4.910;2023-07-22T10:04:20;49563.53;;;-146.94;50.15
56737;BME280;42618;51.226;4.910;2023-07-22T10:06:48;49543.59;;;-146.94;52.04
56737;BME280;42618;51.226;4.910;2023-07-22T10:09:15;49539.63;;;-146.94;50.82
56737;BME280;42618;51.226;4.910;2023-07-22T10:11:43;49523.66;;;-146.94;50.87
56737;BME280;42618;51.226;4.910;2023-07-22T10:14:11;49561.53;;;-146.94;50.52
56737;BME280;42618;51.226;4.910;2023-07-22T10:16:41;49521.69;;;-146.94;49.68
56737;BME280;42618;51.226;4.910;2023-07-22T10:19:09;49543.59;;;-146.94;49.19
56737;BME280;42618;51.226;4.910;2023-07-22T10:21:36;49531.63;;;-146.94;48.69
56737;BME280;42618;51.226;4.910;2023-07-22T10:24:05;49511.72;;;-146.94;48.83
56737;BME280;42618;51.226;4.910;2023-07-22T10:26:33;49511.72;;;-146.94;46.63
56737;BME280;42618;51.226;4.910;2023-07-22T10:29:13;49519.69;;;-146.94;46.99
56737;BME280;42618;51.226;4.910;2023-07-22T10:31:40;49503.72;;;-146.94;47.48
56737;BME280;42618;51.226;4.910;2023-07-22T10:34:07;49515.69;;;-146.94;46.63
56737;BME280;42618;51.226;4.910;2023-07-22T10:36:35;49535.63;;;-146.94;46.48
56737;BME280;42618;51.226;4.910;2023-07-22T10:39:02;49523.66;;;-146.94;46.17
56737;BME280;42618;51.226;4.910;2023-07-22T10:41:32;49547.59;;;-146.94;45.42
56737;BME280;42618;51.226;4.910;2023-07-22T10:43:59;49489.78;;;-146.94;44.45
56737;BME280;42618;51.226;4.910;2023-07-22T10:46:32;49493.75;;;-146.94;43.84
56737;BME280;42618;51.226;4.910;2023-07-22T10:49:13;49523.66;;;-146.94;44.05
56737;BME280;42618;51.226;4.910;2023-07-22T10:51:40;49507.72;;;-146.94;44.64
56737;BME280;42618;51.226;4.910;2023-07-22T10:54:11;49517.69;;;-146.94;44.08
56737;BME280;42618;51.226;4.910;2023-07-22T10:56:42;49541.59;;;-146.94;43.58
56737;BME280;42618;51.226;4.910;2023-07-22T10:59:12;49507.72;;;-146.94;43.66
56737;BME280;42618;51.226;4.910;2023-07-22T11:01:39;49491.78;;;-146.94;42.72
56737;BME280;42618;51.226;4.910;2023-07-22T11:14:32;49503.72;;;-146.94;40.02
56737;BME280;42618;51.226;4.910;2023-07-22T11:17:01;49505.72;;;-146.94;39.71
56737;BME280;42618;51.226;4.910;2023-07-22T11:19:31;49483.81;;;-146.94;38.57
56737;BME280;42618;51.226;4.910;2023-07-22T11:21:58;49517.69;;;-146.94;38.82
56737;BME280;42618;51.226;4.910;2023-07-22T11:24:25;49485.78;;;-146.94;39.15
56737;BME280;42618;51.226;4.910;2023-07-22T11:26:53;49519.69;;;-146.94;39.00
56737;BME280;42618;51.226;4.910;2023-07-22T11:29:20;49465.84;;;-146.94;37.75
56737;BME280;42618;51.226;4.910;2023-07-22T11:31:49;49497.75;;;-146.94;37.91
56737;BME280;42618;51.226;4.910;2023-07-22T11:34:21;49459.88;;;-146.94;38.49
56737;BME280;42618;51.226;4.910;2023-07-22T11:36:50;49497.75;;;-146.94;37.40
56737;BME280;42618;51.226;4.910;2023-07-22T11:39:19;49507.72;;;-146.94;37.91
56737;BME280;42618;51.226;4.910;2023-07-22T11:41:47;49483.81;;;-146.94;38.30
56737;BME280;42618;51.226;4.910;2023-07-22T11:44:17;49487.78;;;-146.94;36.91
56737;BME280;42618;51.226;4.910;2023-07-22T11:47:04;49463.88;;;-146.94;36.03
56737;BME280;42618;51.226;4.910;2023-07-22T11:49:35;49509.72;;;-146.94;36.77
56737;BME280;42618;51.226;4.910;2023-07-22T11:52:04;49491.78;;;-146.94;37.38
56737;BME280;42618;51.226;4.910;2023-07-22T11:54:32;49499.75;;;-146.94;36.91
56737;BME280;42618;51.226;4.910;2023-07-22T11:57:22;49477.81;;;-146.94;37.14
56737;BME280;42618;51.226;4.910;2023-07-22T11:59:53;49459.88;;;-146.94;36.69
56737;BME280;42618;51.226;4.910;2023-07-22T12:02:26;49455.88;;;-146.94;35.64
56737;BME280;42618;51.226;4.910;2023-07-22T12:04:53;49467.84;;;-146.94;35.60
56737;BME280;42618;51.226;4.910;2023-07-22T12:07:33;49491.78;;;-146.94;36.08
56737;BME280;42618;51.226;4.910;2023-07-22T12:10:04;49483.81;;;-146.94;36.16
56737;BME280;42618;51.226;4.910;2023-07-22T12:12:36;49479.81;;;-146.94;36.56
56737;BME280;42618;51.226;4.910;2023-07-22T12:15:24;49479.81;;;-146.94;36.76
56737;BME280;42618;51.226;4.910;2023-07-22T12:18:00;49479.81;;;-146.94;37.48
56737;BME280;42618;51.226;4.910;2023-07-22T12:20:31;49517.69;;;-146.94;37.74
56737;BME280;42618;51.226;4.910;2023-07-22T12:22:58;49439.94;;;-146.94;37.02
56737;BME280;42618;51.226;4.910;2023-07-22T12:25:25;49479.81;;;-146.94;36.21
56737;BME280;42618;51.226;4.910;2023-07-22T12:27:52;49483.81;;;-146.94;36.16
56737;BME280;42618;51.226;4.910;2023-07-22T12:30:19;49483.81;;;-146.94;36.33
56737;BME280;42618;51.226;4.910;2023-07-22T12:32:47;49467.84;;;-146.94;36.50
56737;BME280;42618;51.226;4.910;2023-07-22T12:35:15;49539.63;;;-146.94;36.12
56737;BME280;42618;51.226;4.910;2023-07-22T12:37:42;49511.72;;;-146.94;36.41
56737;BME280;42618;51.226;4.910;2023-07-22T12:40:09;49487.78;;;-146.94;35.82
56737;BME280;42618;51.226;4.910;2023-07-22T12:42:39;49495.75;;;-146.94;36.37
56737;BME280;42618;51.226;4.910;2023-07-22T12:45:07;49471.84;;;-146.94;35.41
56737;BME280;42618;51.226;4.910;2023-07-22T12:47:34;49489.78;;;-146.94;36.09
56737;BME280;42618;51.226;4.910;2023-07-22T12:50:01;49535.63;;;-146.94;36.71
56737;BME280;42618;51.226;4.910;2023-07-22T12:52:28;49481.81;;;-146.94;36.32
56737;BME280;42618;51.226;4.910;2023-07-22T12:54:55;49461.88;;;-146.94;35.87
56737;BME280;42618;51.226;4.910;2023-07-22T12:57:21;49457.88;;;-146.94;35.49